Terminal Aerodrome Forecast
Issued by NWS Portland, OR

Home | Current Version | Previous Version | Text Only | Print | Product List | Glossary On
Versions: 1 2 3 4 5 6 7 8 9 10 11 12 13
000
FTUS46 KPQR 270529
TAFHIO
TAF
KHIO 270529Z 2706/2806 30006KT P6SM SKC
     FM271500 29001KT P6SM FEW015 BKN025
     FM271800 32003KT P6SM FEW015 OVC035
     FM271900 VRB03KT P6SM BKN050
     FM272300 35006KT P6SM SKC
     FM280100 32011KT P6SM SKC=

USA.gov is the U.S. government's official web portal to all federal, state and local government web resources and services.